KBOS/BOS METAR and TAF weather

Enter ICAO airport designator
Station Type Date Time Source
KBOS METAR 2022/08/12 14:54 UTC NOAA

KBOS 121454Z 30007KT 10SM FEW050 FEW130 SCT250 26/12 A2997 RMK AO2 SLP147 T02560117 50006


Station Type Date Time Source
KBOS Decoded METAR 2022/08/12 14:54 UTC NOAA

BOSTON LOGAN INTERNATIONAL, MA, United States (KBOS) 42-22N 071-01W 54M
Aug 12, 2022 - 10:54 AM EDT / 2022.08.12 1454 UTC
Wind: from the WNW (300 degrees) at 8 MPH (7 KT):0
Visibility: 10 mile(s):0
Sky conditions: partly cloudy
Temperature: 78.1 F (25.6 C)
Dew Point: 53.1 F (11.7 C)
Relative Humidity: 41%
Pressure (altimeter): 29.97 in. Hg (1014 hPa)
Pressure tendency: 0.02 inches (0.6 hPa) higher than three hours ago
ob: KBOS 121454Z 30007KT 10SM FEW050 FEW130 SCT250 26/12 A2997 RMK AO2 SLP147 T02560117 50006
cycle: 15

Station Type Date Time Source
KBOS TAF 2022/08/12 12:22 UTC NOAA

TAF KBOS 121120Z 1212/1318 34008KT P6SM SCT250
FM121500 05008KT P6SM FEW040 BKN200
FM130000 07004KT P6SM BKN250
FM130400 35006KT P6SM BKN200

Example: see airport list